createdAt,value
2019-03-29T00:00:40.743Z,14.62
2019-03-29T00:03:10.433Z,14.59
2019-03-29T00:05:40.144Z,14.58
2019-03-29T00:08:09.786Z,14.58
2019-03-29T00:10:39.405Z,14.55
2019-03-29T00:13:09.065Z,14.56
2019-03-29T00:15:38.731Z,14.53
2019-03-29T00:18:08.359Z,14.54
2019-03-29T00:20:37.978Z,14.55
2019-03-29T00:23:07.612Z,14.54
2019-03-29T00:25:37.221Z,14.50
2019-03-29T00:28:06.837Z,14.50
2019-03-29T00:30:36.444Z,14.50
2019-03-29T00:33:06.058Z,14.51
2019-03-29T00:35:35.712Z,14.47
2019-03-29T00:38:05.336Z,14.43
2019-03-29T00:40:34.991Z,14.39
2019-03-29T00:43:04.752Z,14.40
2019-03-29T00:45:34.349Z,14.38
2019-03-29T00:48:03.979Z,14.38
2019-03-29T00:50:33.601Z,14.38
2019-03-29T00:53:03.240Z,14.23
2019-03-29T00:55:32.834Z,14.20
2019-03-29T00:58:02.441Z,14.18
2019-03-29T01:00:33.658Z,14.14
2019-03-29T01:03:03.338Z,14.14
2019-03-29T01:05:32.954Z,14.17
2019-03-29T01:08:08.328Z,14.18
2019-03-29T01:10:33.983Z,14.18
2019-03-29T01:13:03.642Z,14.23
2019-03-29T01:15:33.266Z,14.24
2019-03-29T01:18:02.886Z,14.25
2019-03-29T01:20:32.514Z,14.20
2019-03-29T01:23:02.110Z,14.18
2019-03-29T01:25:31.734Z,14.17
2019-03-29T01:28:01.345Z,14.17
2019-03-29T01:30:30.961Z,14.13
2019-03-29T01:33:00.570Z,14.14
2019-03-29T01:35:30.200Z,14.21
2019-03-29T01:37:59.812Z,14.22
2019-03-29T01:40:29.443Z,14.21
2019-03-29T01:42:59.061Z,14.22
2019-03-29T01:45:29.291Z,14.18
2019-03-29T01:47:58.925Z,14.19
2019-03-29T01:50:28.541Z,14.19
2019-03-29T01:52:58.156Z,14.21
2019-03-29T01:55:27.783Z,14.16
2019-03-29T01:57:59.075Z,14.10
2019-03-29T02:00:37.725Z,14.11
2019-03-29T02:03:08.661Z,14.16
2019-03-29T02:05:38.268Z,14.18
2019-03-29T02:08:07.873Z,14.19
2019-03-29T02:10:37.501Z,14.18
2019-03-29T02:13:07.165Z,14.16
2019-03-29T02:15:37.779Z,14.02
2019-03-29T02:18:07.481Z,13.95
2019-03-29T02:20:37.113Z,14.01
2019-03-29T02:23:06.720Z,14.05
2019-03-29T02:25:36.359Z,14.12
2019-03-29T02:28:05.968Z,14.15
2019-03-29T02:30:35.624Z,14.16
2019-03-29T02:33:05.239Z,14.17
2019-03-29T02:35:34.860Z,14.13
2019-03-29T02:38:04.631Z,14.09
2019-03-29T02:40:34.256Z,14.07
2019-03-29T02:43:03.883Z,14.09
2019-03-29T02:45:33.501Z,14.11
2019-03-29T02:48:03.110Z,14.05
2019-03-29T02:50:32.726Z,14.01
2019-03-29T02:53:03.108Z,13.92
2019-03-29T02:55:32.744Z,13.88
2019-03-29T02:58:02.351Z,13.88
2019-03-29T03:00:31.957Z,13.90
2019-03-29T03:03:01.558Z,13.83
2019-03-29T03:05:32.064Z,13.82
2019-03-29T03:08:01.778Z,13.79
2019-03-29T03:10:31.404Z,13.80
2019-03-29T03:13:01.021Z,13.80
2019-03-29T03:15:30.693Z,13.82
2019-03-29T03:18:00.321Z,13.90
2019-03-29T03:20:29.937Z,13.96
2019-03-29T03:22:59.551Z,13.87
2019-03-29T03:25:29.173Z,13.85
2019-03-29T03:27:58.774Z,13.88
2019-03-29T03:30:28.388Z,13.87
2019-03-29T03:32:57.996Z,13.87
2019-03-29T03:35:27.625Z,13.97
2019-03-29T03:37:57.249Z,13.93
2019-03-29T03:40:26.855Z,13.91
2019-03-29T03:42:56.582Z,13.94
2019-03-29T03:45:26.332Z,13.91
2019-03-29T03:47:55.941Z,13.87
2019-03-29T03:50:40.658Z,13.86
2019-03-29T03:53:11.594Z,13.89
2019-03-29T03:55:42.359Z,13.86
2019-03-29T03:58:12.849Z,13.80
2019-03-29T04:00:54.826Z,13.80
2019-03-29T04:03:25.756Z,13.80
2019-03-29T04:05:55.897Z,13.78
2019-03-29T04:08:26.336Z,13.76
2019-03-29T04:10:56.211Z,13.79
2019-03-29T04:13:25.877Z,13.82
2019-03-29T04:15:55.509Z,13.82
2019-03-29T04:18:25.112Z,13.84
2019-03-29T04:20:54.737Z,13.82
2019-03-29T04:23:24.358Z,13.84
2019-03-29T04:25:54.138Z,13.85
2019-03-29T04:28:23.745Z,13.86
2019-03-29T04:30:53.375Z,13.77
2019-03-29T04:33:23.123Z,13.72
2019-03-29T04:35:52.815Z,13.69
2019-03-29T04:38:22.412Z,13.70
2019-03-29T04:40:52.035Z,13.75
2019-03-29T04:43:21.635Z,13.77
2019-03-29T04:45:51.290Z,13.75
2019-03-29T04:48:20.893Z,13.73
2019-03-29T04:50:50.508Z,13.68
2019-03-29T04:53:20.129Z,13.69
2019-03-29T04:55:51.608Z,13.68
2019-03-29T04:58:21.217Z,13.69
2019-03-29T05:00:50.860Z,13.71
2019-03-29T05:03:20.482Z,13.72
2019-03-29T05:05:50.101Z,13.75
2019-03-29T05:08:19.688Z,13.71
2019-03-29T05:10:49.309Z,13.72
2019-03-29T05:13:18.888Z,13.68
2019-03-29T05:15:49.411Z,13.70
2019-03-29T05:18:19.083Z,13.71
2019-03-29T05:20:48.709Z,13.71
2019-03-29T05:23:18.320Z,13.72
2019-03-29T05:25:47.949Z,13.79
2019-03-29T05:28:17.557Z,13.84
2019-03-29T05:30:47.176Z,13.91
2019-03-29T05:33:16.790Z,13.98
2019-03-29T05:35:46.403Z,13.97
2019-03-29T05:38:16.021Z,13.85
2019-03-29T05:40:45.665Z,13.81
2019-03-29T05:43:15.285Z,13.85
2019-03-29T05:45:45.793Z,13.92
2019-03-29T05:48:16.161Z,14.03
2019-03-29T05:50:47.222Z,14.04
2019-03-29T05:53:16.829Z,13.97
2019-03-29T05:55:48.338Z,13.98
2019-03-29T05:58:17.769Z,13.98
2019-03-29T06:00:48.407Z,14.05
2019-03-29T06:03:18.010Z,14.14
2019-03-29T06:05:47.655Z,14.22
2019-03-29T06:08:17.352Z,14.26
2019-03-29T06:10:49.174Z,14.30
2019-03-29T06:13:18.408Z,14.39
2019-03-29T06:15:48.720Z,14.43
2019-03-29T06:18:18.336Z,14.44
2019-03-29T06:20:47.948Z,14.46
2019-03-29T06:23:17.565Z,14.51
2019-03-29T06:25:47.189Z,14.50
2019-03-29T06:28:16.804Z,14.48
2019-03-29T06:30:48.494Z,14.52
2019-03-29T06:33:19.126Z,14.55
2019-03-29T06:35:52.068Z,14.57
2019-03-29T06:38:25.642Z,14.57
2019-03-29T06:41:02.673Z,14.65
2019-03-29T06:43:26.609Z,14.69
2019-03-29T06:48:26.382Z,14.61
2019-03-29T06:50:56.011Z,14.61
2019-03-29T06:53:25.625Z,14.59
2019-03-29T06:55:55.235Z,14.65
2019-03-29T06:58:25.211Z,14.71
2019-03-29T07:00:54.990Z,14.79
2019-03-29T07:03:24.594Z,14.90
2019-03-29T07:05:54.209Z,14.93
2019-03-29T07:08:23.809Z,14.88
2019-03-29T07:10:53.414Z,14.85
2019-03-29T07:13:23.104Z,14.69
2019-03-29T07:15:52.719Z,14.82
2019-03-29T07:18:22.338Z,14.85
2019-03-29T07:20:51.931Z,14.97
2019-03-29T07:23:22.053Z,14.93
2019-03-29T07:25:51.730Z,15.01
2019-03-29T07:28:21.349Z,15.06
2019-03-29T07:30:50.970Z,15.18
2019-03-29T07:33:20.600Z,15.25
2019-03-29T07:35:50.193Z,15.28
2019-03-29T07:38:19.897Z,15.32
2019-03-29T07:40:49.522Z,15.34
2019-03-29T07:43:19.179Z,15.49
2019-03-29T07:45:48.799Z,15.63
2019-03-29T07:48:20.018Z,15.76
2019-03-29T07:50:49.622Z,15.82
2019-03-29T07:53:19.238Z,15.89
2019-03-29T07:55:48.845Z,16.07
2019-03-29T07:58:18.459Z,16.01
2019-03-29T08:00:48.258Z,16.01
2019-03-29T08:03:21.018Z,16.09
2019-03-29T08:05:49.205Z,16.19
2019-03-29T08:08:24.657Z,16.34
2019-03-29T08:10:53.601Z,16.37
2019-03-29T08:13:21.580Z,16.52
2019-03-29T08:15:51.198Z,16.65
2019-03-29T08:18:20.817Z,16.68
2019-03-29T08:20:50.474Z,16.66
2019-03-29T08:23:20.085Z,16.56
2019-03-29T08:25:49.985Z,16.60
2019-03-29T08:28:19.615Z,16.57
2019-03-29T08:30:49.234Z,16.69
2019-03-29T08:33:18.855Z,16.89
2019-03-29T08:35:48.456Z,16.86
2019-03-29T08:38:18.061Z,16.89
2019-03-29T08:40:47.672Z,17.15
2019-03-29T08:43:17.316Z,17.40
2019-03-29T08:45:46.912Z,17.45
2019-03-29T08:48:16.548Z,17.52
2019-03-29T08:50:46.299Z,17.38
2019-03-29T08:53:15.917Z,17.27
2019-03-29T08:55:46.387Z,17.42
2019-03-29T08:58:16.223Z,17.66
2019-03-29T09:00:45.937Z,17.73
2019-03-29T09:03:15.682Z,17.95
2019-03-29T09:05:45.993Z,17.96
2019-03-29T09:08:15.973Z,18.03
2019-03-29T09:10:45.573Z,18.10
2019-03-29T09:13:15.201Z,18.11
2019-03-29T09:15:44.807Z,18.12
2019-03-29T09:18:14.413Z,18.26
2019-03-29T09:20:44.020Z,18.37
2019-03-29T09:23:13.785Z,18.40
2019-03-29T09:25:43.571Z,18.57
2019-03-29T09:28:13.196Z,18.59
2019-03-29T09:30:42.810Z,18.69
2019-03-29T09:33:12.494Z,18.84
2019-03-29T09:35:42.873Z,18.96
2019-03-29T09:38:12.876Z,19.20
2019-03-29T09:40:42.481Z,19.17
2019-03-29T09:43:12.096Z,19.29
2019-03-29T09:45:42.434Z,19.32
2019-03-29T09:48:12.058Z,19.43
2019-03-29T09:50:41.677Z,19.60
2019-03-29T09:53:11.298Z,19.56
2019-03-29T09:55:45.585Z,19.63
2019-03-29T09:58:16.596Z,19.64
2019-03-29T10:00:45.154Z,19.28
2019-03-29T10:03:14.764Z,19.42
2019-03-29T10:05:44.389Z,19.61
2019-03-29T10:08:15.227Z,19.74
2019-03-29T10:10:47.403Z,19.82
2019-03-29T10:13:17.037Z,19.87
2019-03-29T10:15:46.627Z,19.95
2019-03-29T10:18:16.234Z,19.98
2019-03-29T10:20:45.845Z,19.85
2019-03-29T10:23:16.342Z,19.82
2019-03-29T10:25:45.942Z,19.82
2019-03-29T10:28:15.563Z,19.78
2019-03-29T10:30:46.881Z,19.78
2019-03-29T10:33:16.714Z,19.82
2019-03-29T10:35:52.221Z,19.80
2019-03-29T10:38:18.425Z,19.87
2019-03-29T10:40:48.239Z,19.98
2019-03-29T10:43:17.846Z,20.01
2019-03-29T10:45:47.452Z,20.04
2019-03-29T10:48:17.069Z,19.99
2019-03-29T10:50:46.673Z,20.15
2019-03-29T10:53:16.313Z,20.27
2019-03-29T10:55:45.900Z,20.34
2019-03-29T10:58:15.526Z,20.59
2019-03-29T11:00:45.135Z,20.71
2019-03-29T11:03:14.747Z,20.69
2019-03-29T11:05:44.356Z,20.71
2019-03-29T11:08:13.983Z,20.66
2019-03-29T11:10:43.597Z,20.73
2019-03-29T11:13:14.365Z,20.81
2019-03-29T11:15:44.267Z,20.50
2019-03-29T11:18:13.975Z,20.47
2019-03-29T11:20:43.587Z,20.73
2019-03-29T11:23:13.194Z,21.22
2019-03-29T11:25:42.792Z,21.48
2019-03-29T11:28:12.420Z,22.14
2019-03-29T11:30:43.093Z,22.57
2019-03-29T11:33:12.944Z,23.04
2019-03-29T11:35:42.559Z,23.29
2019-03-29T11:38:12.178Z,23.14
2019-03-29T11:40:41.811Z,22.88
2019-03-29T11:43:25.741Z,22.41
2019-03-29T11:45:42.792Z,21.89
2019-03-29T11:48:12.473Z,21.54
2019-03-29T11:50:42.093Z,21.36
2019-03-29T11:53:11.721Z,21.27
2019-03-29T11:55:41.314Z,21.11
2019-03-29T11:58:10.924Z,21.14
2019-03-29T12:00:41.340Z,21.14
2019-03-29T12:03:11.209Z,20.98
2019-03-29T12:05:40.831Z,20.66
2019-03-29T12:08:10.539Z,20.71
2019-03-29T12:10:40.290Z,21.01
2019-03-29T12:13:11.300Z,21.34
2019-03-29T12:15:40.988Z,21.58
2019-03-29T12:18:10.592Z,22.25
2019-03-29T12:20:40.211Z,22.86
2019-03-29T12:23:09.800Z,23.10
2019-03-29T12:25:39.427Z,23.37
2019-03-29T12:28:09.036Z,24.06
2019-03-29T12:30:39.816Z,26.02
2019-03-29T12:33:09.428Z,27.51
2019-03-29T12:35:39.058Z,27.66
2019-03-29T12:38:08.675Z,29.25
2019-03-29T12:40:38.287Z,31.14
2019-03-29T12:43:07.897Z,33.63
2019-03-29T12:45:37.515Z,37.38
2019-03-29T12:48:07.201Z,40.17
2019-03-29T12:50:36.808Z,40.95
2019-03-29T12:53:06.407Z,41.26
2019-03-29T12:55:36.015Z,44.50
2019-03-29T12:58:05.758Z,46.62
2019-03-29T13:00:35.388Z,46.62
2019-03-29T13:03:05.747Z,45.70
2019-03-29T13:05:35.369Z,45.76
2019-03-29T13:08:04.954Z,44.93
2019-03-29T13:10:34.641Z,44.80
2019-03-29T13:13:04.312Z,43.54
2019-03-29T13:15:35.486Z,40.70
2019-03-29T13:18:05.162Z,38.84
2019-03-29T13:20:34.802Z,40.08
2019-03-29T13:23:04.423Z,39.20
2019-03-29T13:25:34.183Z,38.69
2019-03-29T13:28:03.899Z,40.63
2019-03-29T13:30:33.532Z,43.35
2019-03-29T13:33:03.129Z,44.45
2019-03-29T13:35:32.756Z,44.27
2019-03-29T13:38:02.349Z,44.37
2019-03-29T13:40:31.971Z,44.74
2019-03-29T13:43:01.848Z,44.69
2019-03-29T13:45:31.635Z,44.05
2019-03-29T13:48:01.227Z,43.57
2019-03-29T13:50:30.852Z,44.49
2019-03-29T13:53:00.503Z,45.89
2019-03-29T13:55:30.154Z,45.85
2019-03-29T13:57:59.752Z,44.40
2019-03-29T14:00:29.384Z,43.29
2019-03-29T14:02:58.989Z,43.20
2019-03-29T14:05:28.637Z,41.68
2019-03-29T14:07:58.240Z,40.33
2019-03-29T14:10:27.856Z,40.54
2019-03-29T14:12:57.461Z,41.90
2019-03-29T14:15:27.072Z,43.84
2019-03-29T14:17:56.681Z,44.32
2019-03-29T14:20:34.262Z,44.53
2019-03-29T14:23:04.489Z,43.87
2019-03-29T14:25:34.101Z,42.60
2019-03-29T14:28:03.707Z,39.82
2019-03-29T14:30:33.384Z,34.21
2019-03-29T14:33:02.991Z,30.06
2019-03-29T14:35:32.600Z,27.27
2019-03-29T14:38:02.225Z,25.27
2019-03-29T14:40:31.853Z,24.72
2019-03-29T14:43:02.523Z,23.65
2019-03-29T14:45:32.206Z,22.82
2019-03-29T14:48:01.824Z,21.95
2019-03-29T14:50:31.464Z,21.40
2019-03-29T14:53:01.081Z,20.85
2019-03-29T14:55:30.720Z,20.45
2019-03-29T14:58:00.315Z,20.34
2019-03-29T15:00:43.828Z,20.14
2019-03-29T15:03:13.887Z,19.84
2019-03-29T15:05:43.533Z,19.64
2019-03-29T15:08:13.154Z,19.50
2019-03-29T15:10:45.567Z,19.29
2019-03-29T15:13:14.117Z,19.21
2019-03-29T15:15:43.725Z,19.11
2019-03-29T15:18:13.340Z,18.97
2019-03-29T15:20:53.473Z,19.00
2019-03-29T15:23:14.289Z,18.91
2019-03-29T15:25:43.893Z,18.81
2019-03-29T15:28:13.518Z,18.73
2019-03-29T15:30:43.611Z,18.55
2019-03-29T15:33:13.221Z,18.48
2019-03-29T15:35:42.829Z,18.47
2019-03-29T15:38:12.447Z,18.38
2019-03-29T15:40:42.082Z,18.40
2019-03-29T15:43:11.674Z,18.43
2019-03-29T15:45:41.293Z,18.39
2019-03-29T15:48:10.974Z,18.28
2019-03-29T15:50:40.584Z,18.23
2019-03-29T15:53:10.255Z,18.14
2019-03-29T15:55:39.877Z,18.11
2019-03-29T15:58:09.490Z,18.12
2019-03-29T16:00:39.115Z,18.03
2019-03-29T16:03:08.783Z,17.98
2019-03-29T16:05:38.399Z,17.91
2019-03-29T16:08:07.999Z,17.86
2019-03-29T16:10:40.943Z,17.78
2019-03-29T16:13:08.931Z,17.78
2019-03-29T16:15:39.333Z,17.79
2019-03-29T16:18:08.923Z,17.73
2019-03-29T16:20:38.707Z,17.66
2019-03-29T16:23:08.317Z,17.54
2019-03-29T16:25:37.929Z,17.43
2019-03-29T16:28:07.534Z,17.34
2019-03-29T16:30:37.237Z,17.28
2019-03-29T16:33:06.866Z,17.24
2019-03-29T16:35:36.489Z,17.15
2019-03-29T16:38:06.092Z,17.02
2019-03-29T16:40:35.712Z,16.99
2019-03-29T16:43:05.383Z,16.89
2019-03-29T16:45:47.159Z,16.79
2019-03-29T16:48:07.019Z,16.66
2019-03-29T16:50:36.771Z,16.55
2019-03-29T16:53:06.427Z,16.44
2019-03-29T16:55:36.017Z,16.34
2019-03-29T16:58:05.665Z,16.31
2019-03-29T17:00:35.303Z,16.31
2019-03-29T17:03:04.899Z,16.26
2019-03-29T17:05:34.585Z,16.16
2019-03-29T17:08:05.487Z,16.07
2019-03-29T17:10:35.259Z,15.95
2019-03-29T17:13:04.876Z,15.83
2019-03-29T17:15:34.484Z,15.69
2019-03-29T17:18:05.603Z,15.61
2019-03-29T17:20:35.215Z,15.54
2019-03-29T17:23:04.834Z,15.41
2019-03-29T17:25:34.451Z,15.38
2019-03-29T17:28:04.065Z,15.35
2019-03-29T17:30:38.995Z,15.38
2019-03-29T17:33:08.606Z,15.34
2019-03-29T17:35:38.217Z,15.26
2019-03-29T17:38:07.890Z,15.15
2019-03-29T17:40:37.502Z,15.12
2019-03-29T17:43:07.124Z,15.05
2019-03-29T17:45:36.737Z,14.95
2019-03-29T17:48:06.873Z,14.90
2019-03-29T17:50:36.551Z,14.81
2019-03-29T17:53:06.185Z,14.71
2019-03-29T17:55:35.861Z,14.62
2019-03-29T17:58:05.555Z,14.53
2019-03-29T18:00:35.231Z,14.47
2019-03-29T18:03:04.890Z,14.44
2019-03-29T18:05:34.484Z,14.39
2019-03-29T18:08:04.302Z,14.27
2019-03-29T18:10:33.906Z,14.12
2019-03-29T18:13:03.523Z,14.03
2019-03-29T18:15:33.145Z,13.97
2019-03-29T18:18:02.787Z,13.86
2019-03-29T18:20:32.408Z,13.76
2019-03-29T18:23:02.031Z,13.71
2019-03-29T18:25:31.649Z,13.65
2019-03-29T18:28:01.256Z,13.59
2019-03-29T18:30:40.040Z,13.56
2019-03-29T18:33:09.635Z,13.51
2019-03-29T18:35:39.313Z,13.45
2019-03-29T18:38:08.931Z,13.41
2019-03-29T18:40:38.555Z,13.35
2019-03-29T18:43:08.251Z,13.33
2019-03-29T18:45:41.371Z,13.26
2019-03-29T18:48:09.996Z,13.18
2019-03-29T18:50:41.007Z,13.15
2019-03-29T18:53:10.990Z,13.11
2019-03-29T18:55:40.610Z,13.07
2019-03-29T18:58:10.235Z,13.04
2019-03-29T19:00:40.118Z,12.99
2019-03-29T19:03:11.802Z,12.97
2019-03-29T19:05:41.183Z,12.93
2019-03-29T19:08:10.809Z,12.87
2019-03-29T19:10:40.457Z,12.80
2019-03-29T19:13:10.100Z,12.75
2019-03-29T19:15:39.697Z,12.72
2019-03-29T19:18:09.329Z,12.68
2019-03-29T19:20:38.944Z,12.60
2019-03-29T19:23:08.571Z,12.55
2019-03-29T19:25:38.174Z,12.51
2019-03-29T19:28:07.789Z,12.47
2019-03-29T19:30:37.394Z,12.45
2019-03-29T19:33:07.080Z,12.42
2019-03-29T19:35:36.685Z,12.39
2019-03-29T19:38:06.304Z,12.34
2019-03-29T19:40:35.902Z,12.32
2019-03-29T19:43:05.590Z,12.27
2019-03-29T19:45:36.734Z,12.23
2019-03-29T19:48:06.359Z,12.19
2019-03-29T19:50:36.986Z,12.18
2019-03-29T19:53:06.614Z,12.13
2019-03-29T19:55:36.226Z,12.09
2019-03-29T19:58:05.871Z,12.04
2019-03-29T20:00:41.141Z,12.03
2019-03-29T20:03:11.043Z,12.01
2019-03-29T20:05:40.594Z,12.00
2019-03-29T20:08:10.366Z,11.96
2019-03-29T20:10:40.036Z,11.90
2019-03-29T20:13:09.731Z,11.87
2019-03-29T20:15:39.356Z,11.84
2019-03-29T20:18:09.147Z,11.83
2019-03-29T20:20:38.746Z,11.81
2019-03-29T20:23:08.347Z,11.76
2019-03-29T20:25:37.976Z,11.72
2019-03-29T20:28:07.599Z,11.69
2019-03-29T20:30:37.189Z,11.68
2019-03-29T20:33:06.817Z,11.67
2019-03-29T20:35:36.421Z,11.63
2019-03-29T20:38:06.027Z,11.58
2019-03-29T20:40:35.642Z,11.52
2019-03-29T20:43:05.253Z,11.49
2019-03-29T20:45:34.855Z,11.47
2019-03-29T20:48:04.710Z,11.45
2019-03-29T20:50:34.289Z,11.41
2019-03-29T20:53:03.917Z,11.36
2019-03-29T20:55:34.395Z,11.37
2019-03-29T20:58:04.074Z,11.35
2019-03-29T21:00:33.691Z,11.33
2019-03-29T21:03:03.305Z,11.24
2019-03-29T21:05:34.455Z,11.25
2019-03-29T21:08:04.098Z,11.25
2019-03-29T21:10:36.671Z,11.24
2019-03-29T21:13:07.320Z,11.21
2019-03-29T21:15:37.734Z,11.17
2019-03-29T21:18:07.378Z,11.15
2019-03-29T21:20:37.317Z,11.17
2019-03-29T21:23:08.446Z,11.14
2019-03-29T21:25:39.639Z,11.09
2019-03-29T21:30:37.857Z,11.09
2019-03-29T21:33:07.487Z,11.08
2019-03-29T21:35:37.116Z,11.07
2019-03-29T21:38:06.736Z,11.03
2019-03-29T21:40:36.345Z,11.00
2019-03-29T21:43:07.488Z,11.00
2019-03-29T21:45:37.095Z,10.98
2019-03-29T21:48:27.293Z,10.96
2019-03-29T21:50:38.065Z,10.91
2019-03-29T21:53:07.656Z,10.87
2019-03-29T21:55:37.276Z,10.87
2019-03-29T21:58:06.880Z,10.87
2019-03-29T22:00:36.472Z,10.86
2019-03-29T22:03:06.116Z,10.84
2019-03-29T22:05:35.708Z,10.83
2019-03-29T22:08:05.399Z,10.78
2019-03-29T22:10:35.020Z,10.76
2019-03-29T22:13:04.639Z,10.72
2019-03-29T22:15:34.233Z,10.71
2019-03-29T22:18:06.750Z,10.71
2019-03-29T22:20:35.188Z,10.69
2019-03-29T22:23:04.882Z,10.71
2019-03-29T22:25:34.596Z,10.69
2019-03-29T22:28:04.224Z,10.67
2019-03-29T22:30:33.856Z,10.69
2019-03-29T22:33:04.694Z,10.68
2019-03-29T22:35:34.408Z,10.73
2019-03-29T22:38:05.409Z,10.72
2019-03-29T22:40:35.907Z,10.73
2019-03-29T22:43:07.397Z,10.73
2019-03-29T22:45:36.870Z,10.71
2019-03-29T22:48:07.397Z,10.65
2019-03-29T22:50:37.016Z,10.63
2019-03-29T22:53:07.521Z,10.64
2019-03-29T22:55:37.140Z,10.64
2019-03-29T22:58:06.756Z,10.60
2019-03-29T23:00:42.615Z,10.58
2019-03-29T23:03:12.865Z,10.57
2019-03-29T23:05:47.201Z,10.55
2019-03-29T23:08:15.576Z,10.55
2019-03-29T23:10:45.165Z,10.55
2019-03-29T23:13:16.415Z,10.56
2019-03-29T23:15:46.039Z,10.55
2019-03-29T23:18:17.640Z,10.50
2019-03-29T23:20:47.182Z,10.49
2019-03-29T23:23:16.788Z,10.48
2019-03-29T23:25:47.359Z,10.46
2019-03-29T23:28:16.973Z,10.41
2019-03-29T23:30:46.595Z,10.39
2019-03-29T23:33:16.238Z,10.39
2019-03-29T23:35:45.851Z,10.35
2019-03-29T23:38:15.452Z,10.31
2019-03-29T23:40:45.639Z,10.27
2019-03-29T23:43:15.240Z,10.22
2019-03-29T23:45:44.859Z,10.17
2019-03-29T23:48:14.490Z,10.13
2019-03-29T23:50:44.109Z,10.09
2019-03-29T23:53:13.721Z,10.12
2019-03-29T23:55:43.927Z,10.14
2019-03-29T23:58:13.526Z,10.11
